Time;durP1;ratioP1;P1;durP2;ratioP2;P2;SDS_P1;SDS_P2;PMS_P1;PMS_P2;Temp;Humidity;BMP_temperature;BMP_pressure;BME280_temperature;BME280_humidity;BME280_pressure;Samples;Min_cycle;Max_cycle;Signal;HPM_P1;HPM_P2
2023/03/01 00:02:26;;;;;;;17.60;10.70;;;;;;;-1.00;61.87;101319.50;108007;1256;71922;-70
2023/03/01 00:04:57;;;;;;;16.50;10.20;;;;;;;-1.01;62.06;101313.84;107782;1257;60552;-71
2023/03/01 00:07:27;;;;;;;14.30;9.70;;;;;;;-1.02;62.20;101312.63;108079;1257;60310;-69
2023/03/01 00:09:58;;;;;;;15.30;9.30;;;;;;;-1.02;62.10;101308.89;108102;1256;74154;-71
2023/03/01 00:12:27;;;;;;;14.70;9.00;;;;;;;-1.03;62.29;101306.59;108084;1257;72983;-70
2023/03/01 00:14:56;;;;;;;13.40;8.90;;;;;;;-1.01;62.22;101301.77;108085;1255;71801;-70
2023/03/01 00:17:24;;;;;;;15.30;9.40;;;;;;;-0.99;62.42;101301.64;108089;1256;60453;-70
2023/03/01 00:19:53;;;;;;;15.20;9.90;;;;;;;-0.99;62.27;101299.52;107925;1255;61042;-71
2023/03/01 00:22:23;;;;;;;15.50;9.50;;;;;;;-0.99;62.24;101296.37;108064;1256;71575;-71
2023/03/01 00:24:51;;;;;;;15.30;9.20;;;;;;;-0.99;62.36;101294.08;108085;1257;72319;-71
2023/03/01 00:27:19;;;;;;;15.10;9.60;;;;;;;-1.02;62.42;101279.90;108026;1256;71674;-71
2023/03/01 00:29:48;;;;;;;15.30;9.20;;;;;;;-1.03;62.49;101274.95;104036;1256;5247520;-71
2023/03/01 00:32:18;;;;;;;16.00;9.50;;;;;;;-1.03;62.60;101281.23;108071;1255;60438;-71
2023/03/01 00:34:54;;;;;;;13.60;8.30;;;;;;;-1.06;62.54;101269.69;108124;1257;73536;-70
2023/03/01 00:37:23;;;;;;;14.60;8.80;;;;;;;-1.08;62.67;101262.58;108083;1257;73763;-70
2023/03/01 00:39:51;;;;;;;12.30;7.50;;;;;;;-1.08;62.61;101249.17;108101;1257;73088;-70
2023/03/01 00:42:19;;;;;;;15.80;9.80;;;;;;;-1.10;62.74;101241.27;108080;1257;60818;-70
2023/03/01 00:44:48;;;;;;;14.10;9.10;;;;;;;-1.11;62.68;101246.64;108061;1256;60679;-70
2023/03/01 00:47:17;;;;;;;16.60;10.00;;;;;;;-1.11;62.85;101235.48;108082;1258;74307;-70
2023/03/01 00:49:48;;;;;;;13.60;8.50;;;;;;;-1.11;62.85;101227.58;108119;1257;73592;-69
2023/03/01 00:52:18;;;;;;;15.00;9.20;;;;;;;-1.10;62.70;101230.46;107984;1256;72086;-70
2023/03/01 00:54:47;;;;;;;16.10;9.90;;;;;;;-1.10;62.83;101225.09;107863;1256;61089;-71
2023/03/01 00:57:15;;;;;;;15.40;9.10;;;;;;;-1.10;62.75;101242.16;108002;1256;60809;-71
2023/03/01 00:59:43;;;;;;;17.60;10.60;;;;;;;-1.10;62.79;101242.52;108055;1256;74616;-70
2023/03/01 01:02:11;;;;;;;17.50;10.60;;;;;;;-1.08;62.72;101229.73;108058;1257;72866;-70
2023/03/01 01:04:40;;;;;;;17.20;9.60;;;;;;;-1.07;62.91;101233.77;108077;1255;72334;-71
2023/03/01 01:07:13;;;;;;;16.90;10.10;;;;;;;-1.06;62.93;101223.25;108045;1257;60581;-71
2023/03/01 01:09:42;;;;;;;15.50;9.60;;;;;;;-1.07;63.11;101223.86;108111;1256;61389;-70
2023/03/01 01:12:10;;;;;;;16.40;9.80;;;;;;;-1.08;63.30;101212.95;108058;1257;74378;-70
2023/03/01 01:14:40;;;;;;;15.20;8.80;;;;;;;-1.08;63.31;101206.87;108115;1256;71924;-71
2023/03/01 01:17:08;;;;;;;17.80;10.60;;;;;;;-1.09;63.38;101211.28;108079;1256;71396;-70
2023/03/01 01:19:38;;;;;;;15.00;9.80;;;;;;;-1.07;63.36;101208.11;107934;1255;60356;-70
2023/03/01 01:22:06;;;;;;;15.50;9.60;;;;;;;-1.05;63.42;101215.15;108074;1257;59106;-69
2023/03/01 01:24:35;;;;;;;15.10;9.30;;;;;;;-1.00;63.38;101205.64;108055;1255;73387;-70
2023/03/01 01:27:03;;;;;;;16.40;9.60;;;;;;;-0.98;63.41;101212.50;108069;1257;72982;-69
2023/03/01 01:29:31;;;;;;;15.30;9.00;;;;;;;-0.96;63.25;101201.31;107952;1260;72573;-69
2023/03/01 01:32:00;;;;;;;17.40;10.10;;;;;;;-0.97;63.26;101188.99;108051;1256;61475;-70
2023/03/01 01:34:29;;;;;;;17.50;9.80;;;;;;;-0.92;63.01;101187.48;107886;1260;61018;-70
2023/03/01 01:37:02;;;;;;;19.90;11.20;;;;;;;-0.92;62.96;101178.23;107894;1257;75165;-70
2023/03/01 01:39:32;;;;;;;16.40;9.60;;;;;;;-0.90;63.05;101184.63;107952;1256;73079;-70
2023/03/01 01:42:01;;;;;;;16.30;10.60;;;;;;;-0.87;63.16;101181.67;108081;1257;74258;-70
2023/03/01 01:44:30;;;;;;;16.30;9.60;;;;;;;-0.84;63.22;101183.60;108066;1258;61332;-70
2023/03/01 01:47:06;;;;;;;15.90;9.90;;;;;;;-0.81;63.04;101186.61;108117;1256;59977;-71
2023/03/01 01:49:54;;;;;;;16.70;9.50;;;;;;;-0.76;62.92;101186.57;107971;1258;72932;-70
2023/03/01 01:52:27;;;;;;;14.80;8.60;;;;;;;-0.70;63.05;101181.54;107920;1257;71644;-70
2023/03/01 01:55:05;;;;;;;17.50;9.70;;;;;;;-0.70;62.88;101167.86;107980;1254;73953;-71
2023/03/01 01:57:45;;;;;;;15.20;9.50;;;;;;;-0.71;62.88;101170.09;108077;1256;61099;-70
2023/03/01 02:00:22;;;;;;;15.90;9.80;;;;;;;-0.69;62.81;101156.81;107962;1255;60505;-71
2023/03/01 02:02:54;;;;;;;17.20;10.70;;;;;;;-0.71;62.82;101153.64;108087;1255;73520;-70
2023/03/01 02:05:47;;;;;;;17.10;8.60;;;;;;;-0.70;62.64;101150.42;108066;1259;73100;-70
2023/03/01 02:08:26;;;;;;;16.30;9.40;;;;;;;-0.73;62.75;101143.38;108118;1259;73035;-70
2023/03/01 02:10:55;;;;;;;15.90;9.40;;;;;;;-0.75;62.63;101147.61;108059;1258;60946;-70
2023/03/01 02:13:24;;;;;;;16.90;9.90;;;;;;;-0.72;62.67;101141.17;107913;1256;61757;-69
2023/03/01 02:15:53;;;;;;;15.30;8.90;;;;;;;-0.72;62.67;101141.11;107873;1257;74349;-69
2023/03/01 02:18:26;;;;;;;16.00;9.20;;;;;;;-0.72;62.51;101132.63;107963;1257;73968;-71
2023/03/01 02:21:12;;;;;;;16.00;9.70;;;;;;;-0.73;62.42;101129.20;108128;1257;72904;-70
2023/03/01 02:23:41;;;;;;;14.30;9.20;;;;;;;-0.76;62.56;101126.50;108092;1257;60534;-70
2023/03/01 02:26:48;;;;;;;14.40;9.40;;;;;;;-0.80;62.69;101121.36;108078;1257;61482;-71
2023/03/01 02:29:16;;;;;;;17.00;9.40;;;;;;;-0.79;62.44;101116.45;108090;1256;72594;-70
2023/03/01 02:31:45;;;;;;;15.80;9.20;;;;;;;-0.80;62.72;101114.38;108076;1257;73708;-69
2023/03/01 02:34:21;;;;;;;17.60;10.20;;;;;;;-0.81;62.71;101112.30;108052;1256;73863;-72
2023/03/01 02:36:57;;;;;;;15.80;8.80;;;;;;;-0.81;62.62;101107.86;107953;1256;62096;-69
2023/03/01 02:39:43;;;;;;;17.10;10.40;;;;;;;-0.81;62.74;101110.65;107863;1257;60460;-70
2023/03/01 02:42:16;;;;;;;16.60;10.20;;;;;;;-0.82;62.73;101110.42;108050;1255;74462;-70
2023/03/01 02:44:46;;;;;;;18.80;9.50;;;;;;;-0.82;62.70;101105.55;107869;1257;72005;-70
2023/03/01 02:47:14;;;;;;;15.00;9.00;;;;;;;-0.85;62.83;101107.98;108042;1259;73864;-70
2023/03/01 02:49:43;;;;;;;15.20;9.10;;;;;;;-0.86;62.78;101100.08;108041;1256;62057;-70
2023/03/01 02:52:43;;;;;;;16.40;10.20;;;;;;;-0.88;62.78;101105.67;108086;1256;60546;-68
2023/03/01 02:55:13;;;;;;;15.90;8.80;;;;;;;-0.90;62.87;101097.04;107998;1256;73849;-70
2023/03/01 02:57:44;;;;;;;16.30;9.50;;;;;;;-0.94;62.85;101091.48;107885;1257;72174;-71
2023/03/01 03:00:19;;;;;;;16.90;10.20;;;;;;;-0.94;62.93;101081.52;107818;1256;71572;-70
2023/03/01 03:02:51;;;;;;;14.40;8.80;;;;;;;-0.93;63.03;101081.38;108075;1255;60854;-71
2023/03/01 03:05:29;;;;;;;17.00;9.90;;;;;;;-0.93;63.00;101079.54;108128;1256;62105;-70
2023/03/01 03:07:59;;;;;;;15.50;9.10;;;;;;;-0.92;62.93;101069.83;108099;1259;74114;-71
2023/03/01 03:10:33;;;;;;;16.40;9.00;;;;;;;-0.81;62.96;101063.45;108104;1257;72796;-69
2023/03/01 03:13:07;;;;;;;16.90;9.70;;;;;;;-0.80;62.71;101058.98;107968;1256;72694;-70
2023/03/01 03:15:38;;;;;;;15.60;9.50;;;;;;;-0.90;62.97;101054.93;107879;1257;61508;-70
2023/03/01 03:18:13;;;;;;;15.40;10.00;;;;;;;-0.90;63.01;101039.84;108003;1256;60366;-69
2023/03/01 03:34:24;;;;;;;15.60;10.20;;;;;;;-0.78;63.37;101050.35;105597;1282;613222;-63
2023/03/01 03:36:56;;;;;;;14.30;10.20;;;;;;;-0.47;62.62;101050.97;103566;1265;5205031;-64
2023/03/01 03:39:26;;;;;;;15.20;9.60;;;;;;;-0.50;62.71;101049.33;107404;1268;59964;-63
2023/03/01 03:41:55;;;;;;;14.30;9.80;;;;;;;-0.53;62.48;101049.12;107449;1264;70764;-64
2023/03/01 03:44:25;;;;;;;15.80;9.60;;;;;;;-0.55;62.63;101043.91;107443;1265;73500;-63
2023/03/01 03:46:54;;;;;;;16.30;9.60;;;;;;;-0.54;62.81;101043.48;107831;1262;72942;-63
2023/03/01 03:49:22;;;;;;;14.70;9.30;;;;;;;-0.54;62.59;101039.48;107759;1259;61294;-63
2023/03/01 03:51:53;;;;;;;10.40;7.10;;;;;;;-0.48;62.54;101036.20;107741;1258;60287;-63
2023/03/01 03:54:22;;;;;;;15.60;10.10;;;;;;;-0.38;62.32;101038.34;107791;1259;72634;-63
2023/03/01 03:56:50;;;;;;;15.60;9.40;;;;;;;-0.36;62.16;101040.07;107811;1257;73114;-64
2023/03/01 03:59:19;;;;;;;16.00;10.00;;;;;;;-0.37;62.27;101037.05;107802;1259;73264;-64
2023/03/01 04:01:47;;;;;;;16.20;10.20;;;;;;;-0.38;62.08;101043.30;107733;1257;60166;-64
2023/03/01 04:04:18;;;;;;;16.80;10.40;;;;;;;-0.37;62.02;101041.09;107839;1259;59424;-65
2023/03/01 04:06:48;;;;;;;15.70;10.30;;;;;;;-0.35;62.09;101046.13;107813;1259;74339;-65
2023/03/01 04:09:16;;;;;;;16.00;10.10;;;;;;;-0.34;61.98;101043.57;107770;1258;72463;-64
2023/03/01 04:11:45;;;;;;;18.20;10.30;;;;;;;-0.35;62.04;101033.63;107805;1258;72186;-63
2023/03/01 04:14:18;;;;;;;18.00;10.90;;;;;;;-0.35;61.97;101027.40;107788;1258;61494;-63
2023/03/01 04:16:46;;;;;;;17.50;10.70;;;;;;;-0.36;62.07;101026.12;107802;1257;60620;-64
2023/03/01 04:19:16;;;;;;;18.10;10.50;;;;;;;-0.38;62.01;101018.06;107798;1259;72422;-64
2023/03/01 04:21:44;;;;;;;19.10;10.00;;;;;;;-0.40;62.16;101018.47;107783;1259;71817;-63
2023/03/01 04:24:13;;;;;;;20.40;10.50;;;;;;;-0.41;62.16;101021.27;107690;1261;72228;-63
2023/03/01 04:26:41;;;;;;;16.60;9.70;;;;;;;-0.41;62.03;101015.30;107663;1262;61381;-65
2023/03/01 04:29:10;;;;;;;16.00;9.90;;;;;;;-0.42;62.33;101017.17;107628;1262;59974;-63
2023/03/01 04:31:38;;;;;;;17.70;10.60;;;;;;;-0.40;62.26;101020.07;107668;1259;72171;-64
2023/03/01 04:34:07;;;;;;;17.60;10.30;;;;;;;-0.44;62.49;101020.37;107652;1259;71909;-64
2023/03/01 04:36:36;;;;;;;15.80;9.50;;;;;;;-0.59;62.65;101024.64;107663;1259;71535;-63
2023/03/01 04:39:11;;;;;;;16.50;9.60;;;;;;;-0.58;62.81;101021.95;107722;1259;60107;-63
2023/03/01 04:41:40;;;;;;;16.30;10.10;;;;;;;-0.59;62.85;101029.70;107703;1259;60172;-64
2023/03/01 04:44:09;;;;;;;17.50;10.00;;;;;;;-0.59;62.97;101027.11;107688;1259;73320;-63
2023/03/01 04:46:37;;;;;;;17.60;10.30;;;;;;;-0.58;63.02;101025.27;107705;1261;74197;-63
2023/03/01 04:49:05;;;;;;;17.60;10.40;;;;;;;-0.45;62.78;101031.09;107578;1262;73144;-63
2023/03/01 04:51:35;;;;;;;18.00;10.10;;;;;;;-0.42;62.79;101034.99;107530;1261;62090;-63
2023/03/01 04:54:08;;;;;;;18.00;10.70;;;;;;;-0.40;62.56;101039.14;107592;1261;60609;-63
2023/03/01 04:56:37;;;;;;;16.60;10.90;;;;;;;-0.39;62.53;101042.55;107584;1261;72322;-63
2023/03/01 04:59:07;;;;;;;16.90;10.40;;;;;;;-0.37;62.67;101036.66;107550;1260;73752;-64
2023/03/01 05:01:38;;;;;;;18.80;10.40;;;;;;;-0.34;62.68;101044.42;107569;1263;72953;-63
2023/03/01 05:04:07;;;;;;;16.00;10.00;;;;;;;-0.31;62.77;101045.48;107517;1261;62044;-63
2023/03/01 05:06:35;;;;;;;18.80;10.70;;;;;;;-0.31;62.72;101044.77;107598;1262;61286;-62
2023/03/01 05:09:06;;;;;;;17.00;9.90;;;;;;;-0.29;62.81;101045.64;107747;1259;73308;-62
2023/03/01 05:11:35;;;;;;;17.20;9.90;;;;;;;-0.28;62.80;101040.09;107690;1263;73866;-63
2023/03/01 05:14:05;;;;;;;16.90;10.50;;;;;;;-0.28;62.72;101036.51;107669;1259;71293;-64
2023/03/01 05:16:34;;;;;;;18.40;10.10;;;;;;;-0.29;62.65;101038.39;107732;1259;62109;-63
2023/03/01 05:19:11;;;;;;;17.50;10.20;;;;;;;-0.27;62.53;101039.02;107664;1263;59492;-64
2023/03/01 05:24:32;;;;;;;17.80;10.60;;;;;;;-0.27;62.60;101048.84;107663;1260;72256;-63
2023/03/01 05:27:01;;;;;;;17.50;10.90;;;;;;;-0.21;62.81;101056.42;107684;1263;72245;-63
2023/03/01 05:29:35;;;;;;;17.50;10.40;;;;;;;-0.12;62.74;101066.28;107633;1259;60601;-63
2023/03/01 05:32:04;;;;;;;18.50;11.30;;;;;;;0.00;62.61;101063.43;107639;1259;61324;-64
2023/03/01 05:34:35;;;;;;;16.40;10.00;;;;;;;0.09;62.70;101058.61;107681;1259;73359;-63
2023/03/01 05:37:05;;;;;;;17.20;10.90;;;;;;;0.20;62.43;101058.60;107715;1259;71954;-64
2023/03/01 05:39:33;;;;;;;15.60;10.30;;;;;;;0.25;62.17;101055.05;107673;1263;72836;-64
2023/03/01 05:42:02;;;;;;;17.50;11.00;;;;;;;0.20;61.99;101048.89;107661;1259;61422;-64
2023/03/01 05:44:30;;;;;;;17.50;10.50;;;;;;;0.21;62.24;101045.20;107684;1259;59683;-64
2023/03/01 05:46:59;;;;;;;18.80;11.10;;;;;;;0.25;62.21;101042.87;107627;1264;72392;-64
2023/03/01 05:49:28;;;;;;;19.20;11.00;;;;;;;0.33;61.98;101046.85;107667;1259;72761;-64
2023/03/01 05:51:56;;;;;;;17.60;10.60;;;;;;;0.33;61.75;101041.80;107674;1263;72743;-64
2023/03/01 05:54:25;;;;;;;17.00;10.90;;;;;;;0.36;61.85;101039.87;107656;1259;62091;-64
2023/03/01 05:56:53;;;;;;;16.00;9.40;;;;;;;0.45;61.67;101036.92;107640;1261;60457;-64
2023/03/01 05:59:22;;;;;;;18.10;10.90;;;;;;;0.44;61.87;101037.52;107653;1259;71259;-65
2023/03/01 06:01:51;;;;;;;17.80;10.50;;;;;;;0.41;61.93;101044.92;107665;1259;72033;-67
2023/03/01 06:04:20;;;;;;;18.10;10.90;;;;;;;0.45;62.13;101041.82;107598;1259;71685;-64
2023/03/01 06:06:49;;;;;;;22.00;11.40;;;;;;;0.52;61.96;101043.50;107658;1259;60446;-64
2023/03/01 06:09:19;;;;;;;18.00;11.20;;;;;;;0.59;61.88;101044.06;107674;1259;60563;-63
2023/03/01 06:11:48;;;;;;;18.70;11.50;;;;;;;0.64;61.94;101052.91;107683;1259;74757;-64
2023/03/01 06:14:16;;;;;;;21.30;10.60;;;;;;;0.68;61.65;101040.54;107775;1259;72935;-63
2023/03/01 06:16:49;;;;;;;17.00;9.80;;;;;;;0.72;61.82;101044.52;107673;1258;72070;-64
2023/03/01 06:19:23;;;;;;;16.40;10.30;;;;;;;0.73;61.80;101038.52;107719;1259;62194;-64
2023/03/01 06:21:51;;;;;;;17.50;11.00;;;;;;;0.75;61.81;101041.79;107716;1259;59714;-63
2023/03/01 06:24:20;;;;;;;17.00;10.90;;;;;;;0.82;61.73;101040.67;107730;1259;73755;-64
2023/03/01 06:26:49;;;;;;;18.10;11.50;;;;;;;0.87;61.74;101043.87;107750;1259;72995;-63
2023/03/01 06:29:17;;;;;;;17.80;11.70;;;;;;;0.93;61.62;101047.17;107747;1259;72991;-64
2023/03/01 06:31:49;;;;;;;11.20;7.40;;;;;;;1.00;61.75;101052.40;107759;1259;60891;-64
2023/03/01 06:34:17;;;;;;;18.00;11.10;;;;;;;1.07;61.42;101053.14;107779;1257;60042;-63
2023/03/01 06:36:46;;;;;;;16.70;10.90;;;;;;;1.11;61.38;101051.63;107793;1262;73569;-63
2023/03/01 06:39:14;;;;;;;18.20;11.10;;;;;;;1.20;61.31;101060.04;107826;1257;72774;-64
2023/03/01 06:41:44;;;;;;;19.60;11.70;;;;;;;1.28;61.20;101056.21;107833;1262;72585;-63
2023/03/01 06:44:13;;;;;;;17.30;11.10;;;;;;;1.30;60.74;101060.61;107797;1259;61642;-64
2023/03/01 06:46:42;;;;;;;19.50;11.10;;;;;;;1.30;60.45;101061.80;107807;1258;60907;-63
2023/03/01 06:49:11;;;;;;;16.60;10.70;;;;;;;1.29;60.45;101065.38;107800;1262;73193;-63
2023/03/01 06:51:41;;;;;;;17.30;10.60;;;;;;;1.42;60.47;101062.30;107855;1257;73971;-63
2023/03/01 06:54:10;;;;;;;17.30;11.70;;;;;;;1.52;60.18;101058.09;107815;1257;71857;-63
2023/03/01 06:56:38;;;;;;;20.80;12.20;;;;;;;1.61;60.18;101057.37;107789;1260;60470;-63
2023/03/01 06:59:07;;;;;;;22.50;13.40;;;;;;;1.69;60.05;101055.92;107806;1260;61409;-65
2023/03/01 07:01:42;;;;;;;20.30;11.70;;;;;;;1.73;59.71;101051.10;107798;1259;73257;-65
2023/03/01 07:04:11;;;;;;;17.80;11.20;;;;;;;1.61;59.88;101054.14;107761;1257;73638;-63
2023/03/01 07:06:39;;;;;;;20.70;11.60;;;;;;;1.60;60.01;101054.33;107792;1257;71830;-63
2023/03/01 07:09:09;;;;;;;17.40;11.00;;;;;;;1.60;60.21;101055.55;107782;1258;59613;-64
2023/03/01 07:11:38;;;;;;;21.40;12.30;;;;;;;1.64;60.26;101057.13;107862;1257;60247;-63
2023/03/01 07:14:15;;;;;;;18.20;11.50;;;;;;;1.82;59.84;101063.80;107824;1257;73294;-63
2023/03/01 07:16:44;;;;;;;18.20;10.50;;;;;;;1.91;59.68;101058.75;107852;1257;71694;-64
2023/03/01 07:19:12;;;;;;;15.90;10.90;;;;;;;1.95;59.66;101055.11;107770;1262;72906;-64
2023/03/01 07:21:42;;;;;;;18.50;11.30;;;;;;;2.02;59.92;101048.27;107783;1258;61823;-62
2023/03/01 07:24:11;;;;;;;18.10;10.60;;;;;;;2.07;59.82;101052.54;107779;1258;59304;-64
2023/03/01 07:26:48;;;;;;;18.80;11.10;;;;;;;2.18;59.80;101049.48;107768;1260;74200;-64
2023/03/01 07:29:17;;;;;;;18.50;11.20;;;;;;;2.27;60.09;101050.36;107802;1259;71731;-63
2023/03/01 07:31:46;;;;;;;19.90;11.30;;;;;;;2.32;59.91;101050.70;107771;1257;72956;-64
2023/03/01 07:34:16;;;;;;;16.80;10.60;;;;;;;2.39;59.83;101051.11;107768;1257;61842;-64
2023/03/01 07:36:45;;;;;;;18.20;11.20;;;;;;;2.37;59.85;101048.17;107809;1258;59365;-65
2023/03/01 07:39:14;;;;;;;17.70;11.20;;;;;;;2.43;59.89;101044.68;107803;1258;73251;-63
2023/03/01 07:41:45;;;;;;;19.10;11.50;;;;;;;2.55;59.92;101044.27;107814;1259;73700;-64
2023/03/01 07:44:15;;;;;;;17.90;11.20;;;;;;;2.69;59.26;101034.36;107791;1257;72900;-64
2023/03/01 07:46:43;;;;;;;14.00;9.50;;;;;;;2.76;58.89;101029.10;107779;1262;60987;-64
2023/03/01 07:49:12;;;;;;;20.40;10.90;;;;;;;2.83;58.78;101040.14;107821;1262;61506;-65
2023/03/01 07:51:41;;;;;;;16.70;11.00;;;;;;;2.76;58.67;101035.71;107835;1257;74085;-64
2023/03/01 07:54:11;;;;;;;16.70;10.90;;;;;;;2.76;58.77;101034.83;107828;1261;73324;-64
2023/03/01 07:56:40;;;;;;;17.70;11.50;;;;;;;2.84;58.77;101039.13;107771;1262;70492;-63
2023/03/01 07:59:11;;;;;;;21.50;11.50;;;;;;;2.93;58.67;101035.02;107813;1257;61517;-64
2023/03/01 08:01:39;;;;;;;15.70;10.60;;;;;;;3.03;58.52;101030.27;107823;1258;60504;-64
2023/03/01 08:04:08;;;;;;;15.70;10.90;;;;;;;3.10;58.05;101033.55;107753;1261;73186;-63
2023/03/01 08:06:39;;;;;;;17.30;11.20;;;;;;;3.21;57.76;101035.30;107797;1262;73067;-64
2023/03/01 08:09:08;;;;;;;18.50;11.70;;;;;;;3.27;57.57;101031.02;107791;1261;72892;-63
2023/03/01 08:11:37;;;;;;;17.80;11.50;;;;;;;3.28;57.63;101030.49;107874;1257;61216;-64
2023/03/01 08:14:25;;;;;;;17.30;11.20;;;;;;;3.36;57.62;101020.58;107813;1259;62384;-64
2023/03/01 08:16:55;;;;;;;18.80;11.50;;;;;;;3.45;57.47;101030.77;107784;1258;74526;-63
2023/03/01 08:19:24;;;;;;;16.00;10.90;;;;;;;3.55;57.40;101025.30;107765;1258;72913;-63
2023/03/01 08:21:53;;;;;;;16.40;11.10;;;;;;;3.62;57.21;101028.05;107841;1262;72830;-63
2023/03/01 08:24:23;;;;;;;16.30;10.90;;;;;;;3.67;56.97;101028.64;107813;1258;61248;-63
2023/03/01 08:26:55;;;;;;;16.60;11.40;;;;;;;3.70;56.93;101040.63;107871;1257;60581;-64
2023/03/01 08:29:24;;;;;;;15.70;10.50;;;;;;;3.71;56.69;101046.93;107796;1257;73776;-64
2023/03/01 08:31:53;;;;;;;15.20;10.50;;;;;;;3.74;56.73;101047.34;107888;1261;72165;-64
2023/03/01 08:34:21;;;;;;;17.00;11.10;;;;;;;3.76;56.68;101046.00;107833;1261;71191;-64
2023/03/01 08:36:52;;;;;;;16.50;11.20;;;;;;;3.80;56.73;101051.70;107826;1258;60480;-64
2023/03/01 08:39:21;;;;;;;16.70;11.30;;;;;;;3.83;56.56;101051.06;107785;1257;61261;-64
2023/03/01 08:41:50;;;;;;;16.80;10.90;;;;;;;3.85;56.56;101050.27;107814;1262;74985;-65
2023/03/01 08:44:20;;;;;;;16.60;11.10;;;;;;;3.83;56.43;101055.45;107821;1259;73341;-65
2023/03/01 08:46:51;;;;;;;17.60;11.50;;;;;;;3.82;56.67;101049.80;107825;1257;72087;-65
2023/03/01 08:49:19;;;;;;;17.10;11.00;;;;;;;3.84;56.75;101044.56;107869;1257;60404;-65
2023/03/01 08:51:49;;;;;;;18.00;11.20;;;;;;;3.89;56.61;101039.52;107880;1258;60543;-64
2023/03/01 08:54:19;;;;;;;15.90;11.10;;;;;;;3.95;56.71;101032.71;107852;1257;73743;-64
2023/03/01 08:56:49;;;;;;;17.80;11.10;;;;;;;4.05;56.67;101027.92;107833;1258;73157;-65
2023/03/01 08:59:19;;;;;;;17.30;10.80;;;;;;;4.13;56.54;101029.92;107847;1262;73387;-63
2023/03/01 09:01:47;;;;;;;17.40;11.90;;;;;;;4.20;56.33;101027.69;107835;1262;60389;-64
2023/03/01 09:04:16;;;;;;;18.50;12.50;;;;;;;4.27;55.96;101030.62;107859;1258;61279;-64
2023/03/01 09:06:45;;;;;;;18.20;11.40;;;;;;;4.35;55.74;101034.04;107848;1257;73797;-64
2023/03/01 09:09:18;;;;;;;17.10;11.50;;;;;;;4.45;55.42;101042.50;107800;1258;73724;-64
2023/03/01 09:11:47;;;;;;;18.60;11.90;;;;;;;4.53;54.85;101038.25;107793;1257;72991;-64
2023/03/01 09:14:18;;;;;;;17.30;12.40;;;;;;;4.55;54.70;101042.34;107795;1257;61177;-64
2023/03/01 09:16:47;;;;;;;18.40;11.80;;;;;;;4.54;54.63;101047.56;107825;1258;60438;-63
2023/03/01 09:19:16;;;;;;;16.50;10.90;;;;;;;4.55;54.67;101048.96;107837;1259;73946;-64
2023/03/01 09:21:51;;;;;;;18.60;12.10;;;;;;;4.60;54.33;101046.23;107803;1258;73031;-64
2023/03/01 09:24:21;;;;;;;19.60;12.70;;;;;;;4.53;54.63;101055.27;107773;1262;72068;-65
2023/03/01 09:26:53;;;;;;;19.70;12.20;;;;;;;5.07;53.58;101053.21;107787;1258;60528;-66
2023/03/01 09:29:23;;;;;;;17.00;12.00;;;;;;;5.35;52.63;101048.31;107820;1258;60429;-64
2023/03/01 09:31:54;;;;;;;17.20;11.90;;;;;;;5.43;52.48;101046.77;107824;1257;74016;-64
2023/03/01 09:34:24;;;;;;;18.10;11.70;;;;;;;5.06;52.93;101043.84;107830;1257;72927;-65
2023/03/01 09:37:06;;;;;;;19.00;12.20;;;;;;;4.74;53.97;101056.99;107794;1262;73545;-63
2023/03/01 09:39:55;;;;;;;15.70;10.80;;;;;;;4.73;54.04;101057.40;107796;1257;60545;-64
2023/03/01 09:42:39;;;;;;;20.30;11.70;;;;;;;4.76;54.04;101056.52;107790;1257;61293;-65
2023/03/01 09:45:40;;;;;;;17.60;12.10;;;;;;;4.80;53.94;101051.58;107589;1260;73813;-65
2023/03/01 09:48:16;;;;;;;19.50;13.10;;;;;;;4.79;53.99;101050.72;107711;1260;72355;-64
2023/03/01 09:50:48;;;;;;;16.60;11.20;;;;;;;4.75;54.11;101050.04;107805;1263;72729;-64
2023/03/01 09:53:22;;;;;;;16.70;11.00;;;;;;;4.80;54.14;101050.30;107770;1260;60410;-64
2023/03/01 09:56:03;;;;;;;17.20;11.50;;;;;;;4.87;54.19;101051.19;107800;1259;60319;-64
2023/03/01 09:58:55;;;;;;;16.70;11.60;;;;;;;4.88;54.01;101056.16;107802;1258;75119;-64
2023/03/01 10:01:44;;;;;;;17.40;12.00;;;;;;;4.90;53.81;101049.88;108025;1258;71811;-65
2023/03/01 10:04:25;;;;;;;20.20;12.40;;;;;;;4.87;53.87;101050.50;108002;1258;72899;-63
2023/03/01 10:07:17;;;;;;;17.80;11.90;;;;;;;4.88;54.10;101044.92;108126;1257;62417;-64
2023/03/01 10:09:46;;;;;;;17.80;11.40;;;;;;;4.93;53.82;101045.39;107918;1257;60289;-64
2023/03/01 10:12:17;;;;;;;18.10;11.40;;;;;;;4.92;53.83;101032.65;108111;1255;74063;-64
2023/03/01 10:15:00;;;;;;;17.10;10.90;;;;;;;4.89;53.86;101041.58;108076;1256;72285;-64
2023/03/01 10:17:39;;;;;;;17.50;11.70;;;;;;;4.93;53.89;101033.30;108007;1257;73284;-64
2023/03/01 10:20:20;;;;;;;16.80;11.30;;;;;;;5.04;53.96;101029.85;108012;1258;60406;-63
2023/03/01 10:22:52;;;;;;;15.70;10.90;;;;;;;5.10;53.49;101027.38;108084;1256;61124;-64
2023/03/01 10:25:42;;;;;;;;;;;;;;;5.03;53.45;101024.89;108094;1257;74046;-64
2023/03/01 10:28:19;;;;;;;17.10;11.10;;;;;;;4.92;53.65;101027.52;108092;1257;72013;-64
2023/03/01 10:30:49;;;;;;;18.80;11.50;;;;;;;4.88;53.71;101027.94;108059;1255;73910;-64
2023/03/01 10:33:32;;;;;;;19.30;10.90;;;;;;;4.87;53.83;101030.88;108056;1256;60330;-65
2023/03/01 10:36:01;;;;;;;17.90;11.70;;;;;;;4.91;53.89;101029.80;108038;1257;60367;-63
2023/03/01 10:38:31;;;;;;;16.50;11.20;;;;;;;4.98;53.91;101027.55;108079;1257;75136;-65
2023/03/01 10:41:06;;;;;;;17.00;11.60;;;;;;;5.04;53.78;101021.02;108076;1255;72297;-68
2023/03/01 10:43:49;;;;;;;20.10;11.40;;;;;;;5.14;53.71;101025.16;108040;1257;71388;-66
2023/03/01 10:46:37;;;;;;;16.70;10.90;;;;;;;5.22;53.64;101018.75;107933;1256;60485;-64
2023/03/01 10:49:22;;;;;;;17.50;10.60;;;;;;;5.29;53.50;101019.16;107963;1257;60762;-64
2023/03/01 10:51:52;;;;;;;16.30;10.70;;;;;;;5.32;53.21;101018.86;107965;1257;73746;-65
2023/03/01 10:54:29;;;;;;;18.70;11.80;;;;;;;5.31;53.34;101022.79;108048;1257;72762;-64
2023/03/01 10:57:02;;;;;;;15.90;11.30;;;;;;;5.33;53.40;101018.13;107999;1256;73881;-67
2023/03/01 10:59:32;;;;;;;20.80;11.50;;;;;;;5.38;53.31;101016.48;107953;1257;60336;-63
2023/03/01 11:02:22;;;;;;;15.60;11.10;;;;;;;5.46;53.08;101018.05;107993;1256;60280;-64
2023/03/01 11:05:12;;;;;;;18.30;10.70;;;;;;;5.53;52.68;101015.46;107962;1258;74545;-64
2023/03/01 11:08:07;;;;;;;15.10;10.30;;;;;;;5.57;52.60;101009.86;107996;1257;72196;-65
2023/03/01 11:10:35;;;;;;;13.30;9.40;;;;;;;5.56;52.52;101009.74;108021;1257;72161;-64
2023/03/01 11:13:14;;;;;;;16.50;11.20;;;;;;;5.51;52.42;101014.01;108130;1257;60303;-65
2023/03/01 11:16:01;;;;;;;13.40;9.90;;;;;;;5.39;52.52;101010.52;108084;1257;60424;-63
2023/03/01 11:18:30;;;;;;;13.30;9.40;;;;;;;5.27;52.83;101016.27;108101;1257;73263;-64
2023/03/01 11:21:15;;;;;;;14.80;10.20;;;;;;;5.17;52.99;101018.57;108039;1256;72892;-64
2023/03/01 11:23:44;;;;;;;14.90;9.80;;;;;;;5.10;53.21;101021.84;108057;1256;71858;-63
2023/03/01 11:26:13;;;;;;;14.80;9.70;;;;;;;5.02;53.41;101021.50;108020;1258;60395;-66
2023/03/01 11:28:41;;;;;;;15.40;9.70;;;;;;;4.97;53.64;101025.75;108057;1256;59608;-64
2023/03/01 11:31:13;;;;;;;17.10;11.10;;;;;;;4.95;53.78;101030.16;107851;1256;74054;-64
2023/03/01 11:34:05;;;;;;;15.90;10.20;;;;;;;4.95;54.03;101033.38;108058;1256;73007;-66
2023/03/01 11:36:42;;;;;;;14.90;9.70;;;;;;;4.89;54.22;101028.14;108056;1256;72425;-65
2023/03/01 11:40:15;;;;;;;13.90;9.10;;;;;;;4.86;54.30;101024.27;108052;1257;61058;-65
2023/03/01 11:42:52;;;;;;;14.20;9.80;;;;;;;4.88;54.31;101023.86;107455;1264;59646;-64
2023/03/01 11:45:23;;;;;;;14.50;9.30;;;;;;;4.91;54.39;101021.21;107537;1264;73040;-65
2023/03/01 11:48:15;;;;;;;14.70;9.70;;;;;;;4.95;54.42;101018.51;107768;1256;72278;-64
2023/03/01 11:50:47;;;;;;;14.90;9.80;;;;;;;5.07;53.92;101016.08;107910;1256;72899;-64